createdAt,value
2022-08-05T00:00:16.500Z,84.10
2022-08-05T00:02:50.808Z,84.00
2022-08-05T00:06:02.723Z,84.00
2022-08-05T00:08:20.048Z,84.30
2022-08-05T00:11:01.558Z,84.50
2022-08-05T00:13:39.284Z,85.00
2022-08-05T00:16:12.407Z,85.00
2022-08-05T00:18:50.091Z,85.40
2022-08-05T00:21:18.826Z,85.20
2022-08-05T00:23:53.373Z,85.00
2022-08-05T00:26:22.074Z,85.00
2022-08-05T00:28:50.009Z,84.50
2022-08-05T00:31:53.156Z,84.60
2022-08-05T00:34:53.694Z,85.00
2022-08-05T00:37:10.663Z,85.80
2022-08-05T00:39:57.454Z,85.70
2022-08-05T00:42:34.784Z,85.80
2022-08-05T00:45:03.412Z,85.80
2022-08-05T00:47:52.878Z,85.60
2022-08-05T00:50:18.336Z,86.20
2022-08-05T00:52:48.384Z,85.50
2022-08-05T00:55:15.657Z,85.50
2022-08-05T00:57:55.684Z,85.40
2022-08-05T01:00:30.944Z,85.20
2022-08-05T01:02:59.814Z,85.10
2022-08-05T01:05:27.895Z,85.20
2022-08-05T01:08:41.410Z,85.10
2022-08-05T01:11:00.942Z,85.10
2022-08-05T01:13:58.788Z,85.10
2022-08-05T01:16:57.009Z,85.00
2022-08-05T01:19:46.207Z,85.00
2022-08-05T01:22:47.317Z,85.00
2022-08-05T01:25:40.976Z,84.70
2022-08-05T01:28:14.906Z,84.60
2022-08-05T01:30:53.719Z,84.60
2022-08-05T01:33:26.212Z,85.20
2022-08-05T01:35:57.666Z,84.50
2022-08-05T01:38:30.037Z,84.50
2022-08-05T01:41:00.038Z,84.40
2022-08-05T01:43:30.683Z,84.40
2022-08-05T01:46:07.447Z,84.60
2022-08-05T01:48:49.348Z,84.60
2022-08-05T01:51:18.839Z,84.80
2022-08-05T01:53:58.333Z,85.10
2022-08-05T01:58:11.543Z,85.20
2022-08-05T01:59:27.933Z,85.50
2022-08-05T02:02:00.536Z,85.80
2022-08-05T02:04:33.595Z,85.80
2022-08-05T02:07:03.886Z,85.90
2022-08-05T02:09:33.585Z,86.00
2022-08-05T02:12:12.484Z,86.10
2022-08-05T02:14:52.565Z,86.10
2022-08-05T02:18:28.163Z,86.10
2022-08-05T02:20:22.195Z,86.10
2022-08-05T02:23:01.834Z,85.90
2022-08-05T02:25:50.188Z,85.80
2022-08-05T02:28:28.995Z,85.20
2022-08-05T02:31:06.104Z,84.80
2022-08-05T02:33:40.769Z,85.00
2022-08-05T02:36:15.515Z,84.90
2022-08-05T02:38:53.159Z,84.70
2022-08-05T02:41:23.808Z,84.60
2022-08-05T02:44:06.112Z,84.60
2022-08-05T02:46:58.250Z,84.50
2022-08-05T02:49:36.670Z,84.40
2022-08-05T02:52:11.574Z,84.40
2022-08-05T02:54:42.812Z,85.10
2022-08-05T02:58:12.235Z,85.30
2022-08-05T03:00:09.823Z,85.30
2022-08-05T03:02:39.533Z,85.30
2022-08-05T03:05:09.794Z,85.10
2022-08-05T03:08:00.979Z,84.90
2022-08-05T03:10:27.420Z,85.40
2022-08-05T03:12:55.130Z,84.60
2022-08-05T03:15:23.477Z,85.40
2022-08-05T03:17:55.800Z,84.80
2022-08-05T03:20:24.316Z,85.10
2022-08-05T03:22:53.178Z,85.10
2022-08-05T03:26:03.922Z,85.70
2022-08-05T03:28:14.120Z,85.50
2022-08-05T03:30:42.676Z,85.70
2022-08-05T03:33:10.153Z,85.70
2022-08-05T03:35:40.687Z,85.80
2022-08-05T03:38:12.024Z,85.90
2022-08-05T03:40:45.228Z,86.20
2022-08-05T03:44:08.040Z,86.50
2022-08-05T03:46:04.074Z,86.90
2022-08-05T03:48:35.474Z,87.00
2022-08-05T03:52:37.668Z,86.70
2022-08-05T03:55:51.169Z,86.50
2022-08-05T03:57:46.025Z,86.80
2022-08-05T04:00:16.463Z,86.70
2022-08-05T04:02:58.134Z,86.80
2022-08-05T04:05:33.950Z,87.00
2022-08-05T04:08:29.670Z,87.00
2022-08-05T04:10:56.461Z,86.70
2022-08-05T04:13:26.009Z,86.80
2022-08-05T04:16:14.409Z,86.60
2022-08-05T04:18:41.925Z,86.60
2022-08-05T04:21:19.926Z,86.50
2022-08-05T04:24:06.569Z,86.30
2022-08-05T04:26:34.613Z,86.20
2022-08-05T04:29:07.129Z,86.00
2022-08-05T04:31:38.591Z,86.00
2022-08-05T04:34:29.555Z,86.00
2022-08-05T04:36:53.853Z,85.90
2022-08-05T04:39:21.694Z,85.90
2022-08-05T04:41:51.049Z,85.70
2022-08-05T04:44:21.368Z,85.60
2022-08-05T04:46:59.918Z,85.50
2022-08-05T04:49:38.415Z,85.40
2022-08-05T04:52:23.742Z,85.30
2022-08-05T04:54:57.411Z,85.80
2022-08-05T04:57:28.830Z,85.10
2022-08-05T04:59:58.557Z,85.10
2022-08-05T05:02:37.346Z,85.10
2022-08-05T05:05:16.511Z,85.10
2022-08-05T05:08:04.840Z,85.00
2022-08-05T05:10:47.370Z,84.80
2022-08-05T05:13:23.970Z,84.80
2022-08-05T05:15:57.490Z,85.00
2022-08-05T05:18:33.925Z,84.90
2022-08-05T05:21:03.635Z,84.90
2022-08-05T05:23:39.339Z,85.00
2022-08-05T05:26:18.873Z,84.80
2022-08-05T05:28:46.259Z,84.80
2022-08-05T05:31:13.870Z,84.80
2022-08-05T05:33:59.214Z,84.80
2022-08-05T05:36:30.042Z,84.90
2022-08-05T05:38:57.899Z,85.00
2022-08-05T05:41:26.259Z,85.00
2022-08-05T05:44:36.044Z,85.00
2022-08-05T05:46:56.181Z,85.00
2022-08-05T05:49:25.461Z,85.10
2022-08-05T05:51:53.679Z,82.40
2022-08-05T05:54:22.442Z,83.70
2022-08-05T05:57:10.686Z,84.60
2022-08-05T05:59:41.222Z,84.70
2022-08-05T06:02:10.622Z,85.00
2022-08-05T06:04:37.949Z,80.50
2022-08-05T06:07:05.272Z,82.00
2022-08-05T06:10:01.623Z,82.10
2022-08-05T06:12:19.900Z,81.20
2022-08-05T06:14:47.220Z,82.30
2022-08-05T06:17:22.690Z,81.10
2022-08-05T06:20:06.873Z,78.30
2022-08-05T06:22:46.038Z,81.00
2022-08-05T06:25:24.248Z,82.20
2022-08-05T06:28:10.839Z,82.70
2022-08-05T06:30:38.992Z,82.70
2022-08-05T06:33:09.727Z,82.40
2022-08-05T06:36:06.906Z,82.30
2022-08-05T06:38:36.268Z,81.80
2022-08-05T06:41:07.810Z,82.10
2022-08-05T06:43:58.092Z,81.60
2022-08-05T06:46:24.494Z,80.80
2022-08-05T06:48:59.704Z,81.00
2022-08-05T06:51:30.732Z,80.50
2022-08-05T06:53:59.943Z,80.10
2022-08-05T06:56:32.018Z,79.60
2022-08-05T06:59:03.858Z,78.80
2022-08-05T07:01:36.181Z,79.30
2022-08-05T07:04:04.264Z,79.00
2022-08-05T07:06:32.175Z,78.20
2022-08-05T07:09:04.382Z,78.70
2022-08-05T07:11:36.808Z,78.30
2022-08-05T07:14:29.207Z,77.70
2022-08-05T07:17:59.946Z,77.30
2022-08-05T07:20:32.150Z,77.10
2022-08-05T07:22:39.084Z,77.90
2022-08-05T07:25:22.445Z,78.10
2022-08-05T07:28:03.880Z,77.80
2022-08-05T07:30:38.744Z,77.90
2022-08-05T07:33:16.225Z,77.70
2022-08-05T07:36:03.941Z,78.60
2022-08-05T07:38:42.577Z,79.40
2022-08-05T07:42:08.123Z,79.00
2022-08-05T07:44:18.505Z,78.90
2022-08-05T07:46:48.404Z,78.60
2022-08-05T07:49:18.228Z,79.50
2022-08-05T07:51:53.269Z,79.60
2022-08-05T07:54:30.821Z,79.10
2022-08-05T07:57:13.772Z,79.00
2022-08-05T07:59:46.950Z,79.30
2022-08-05T08:02:17.796Z,78.40
2022-08-05T08:04:47.531Z,77.70
2022-08-05T08:07:16.108Z,77.10
2022-08-05T08:09:46.482Z,78.80
2022-08-05T08:12:37.491Z,78.80
2022-08-05T08:15:04.587Z,78.00
2022-08-05T08:17:33.167Z,78.10
2022-08-05T08:20:22.413Z,78.00
2022-08-05T08:22:59.458Z,78.50
2022-08-05T08:25:59.411Z,78.60
2022-08-05T08:28:36.083Z,77.50
2022-08-05T08:31:06.706Z,78.70
2022-08-05T08:33:37.485Z,78.10
2022-08-05T08:38:56.993Z,78.00
2022-08-05T08:41:51.899Z,78.70
2022-08-05T08:45:24.100Z,78.60
2022-08-05T08:47:21.970Z,78.40
2022-08-05T08:50:22.603Z,78.30
2022-08-05T08:52:43.193Z,77.40
2022-08-05T08:55:32.103Z,76.50
2022-08-05T08:58:07.547Z,75.80
2022-08-05T09:00:36.758Z,75.90
2022-08-05T09:03:07.528Z,76.00
2022-08-05T09:05:39.038Z,75.90
2022-08-05T09:08:27.246Z,75.50
2022-08-05T09:10:55.082Z,75.50
2022-08-05T09:13:23.627Z,75.30
2022-08-05T09:15:52.394Z,75.20
2022-08-05T09:18:22.462Z,75.20
2022-08-05T09:20:51.301Z,74.90
2022-08-05T09:23:21.736Z,74.80
2022-08-05T09:26:00.104Z,75.10
2022-08-05T09:28:34.304Z,74.50
2022-08-05T09:31:18.109Z,74.20
2022-08-05T09:34:05.165Z,74.30
2022-08-05T09:36:56.185Z,74.70
2022-08-05T09:39:45.048Z,75.00
2022-08-05T09:42:24.048Z,73.30
2022-08-05T09:44:57.427Z,73.20
2022-08-05T09:47:35.176Z,74.80
2022-08-05T09:50:37.797Z,74.80
2022-08-05T09:53:06.319Z,73.70
2022-08-05T09:55:58.503Z,73.60
2022-08-05T09:58:25.235Z,76.30
2022-08-05T10:00:55.593Z,80.00
2022-08-05T10:03:23.194Z,79.30
2022-08-05T10:06:15.785Z,75.80
2022-08-05T10:08:43.396Z,76.50
2022-08-05T10:11:21.720Z,75.30
2022-08-05T10:13:54.793Z,74.40
2022-08-05T10:16:41.608Z,77.70
2022-08-05T10:19:11.664Z,76.50
2022-08-05T10:21:40.223Z,76.30
2022-08-05T10:24:13.335Z,74.80
2022-08-05T10:26:51.835Z,75.60
2022-08-05T10:29:24.213Z,76.60
2022-08-05T10:32:52.565Z,77.00
2022-08-05T10:35:00.572Z,76.30
2022-08-05T10:37:43.915Z,75.20
2022-08-05T10:40:28.091Z,76.10
2022-08-05T10:43:02.647Z,75.70
2022-08-05T10:45:41.842Z,80.70
2022-08-05T10:48:33.403Z,77.30
2022-08-05T10:51:21.725Z,75.30
2022-08-05T10:53:55.820Z,74.80
2022-08-05T10:56:30.951Z,73.90
2022-08-05T10:59:12.273Z,73.90
2022-08-05T11:01:54.046Z,74.60
2022-08-05T11:04:26.328Z,75.70
2022-08-05T11:07:04.871Z,74.30
2022-08-05T11:10:04.003Z,73.70
2022-08-05T11:12:38.566Z,74.90
2022-08-05T11:15:19.427Z,74.20
2022-08-05T11:17:59.261Z,74.70
2022-08-05T11:20:34.312Z,74.40
2022-08-05T11:24:03.876Z,75.90
2022-08-05T11:26:28.584Z,75.80
2022-08-05T11:28:56.969Z,80.10
2022-08-05T11:31:57.801Z,81.20
2022-08-05T11:34:37.889Z,82.00
2022-08-05T11:37:06.213Z,77.70
2022-08-05T11:40:00.488Z,75.90
2022-08-05T11:42:37.840Z,75.50
2022-08-05T11:45:14.200Z,75.80
2022-08-05T11:47:50.838Z,74.60
2022-08-05T11:50:22.940Z,75.60
2022-08-05T11:52:53.124Z,75.10
2022-08-05T11:55:32.076Z,80.20
2022-08-05T11:58:09.357Z,83.10
2022-08-05T12:00:41.139Z,80.80
2022-08-05T12:03:29.349Z,77.10
2022-08-05T12:06:05.833Z,77.20
2022-08-05T12:08:58.405Z,77.10
2022-08-05T12:11:40.274Z,78.10
2022-08-05T12:14:10.261Z,76.40
2022-08-05T12:16:40.499Z,75.50
2022-08-05T12:20:25.799Z,74.70
2022-08-05T12:22:01.985Z,75.60
2022-08-05T12:24:30.020Z,74.80
2022-08-05T12:26:57.548Z,75.00
2022-08-05T12:29:26.913Z,76.20
2022-08-05T12:31:56.537Z,80.10
2022-08-05T12:34:32.839Z,77.30
2022-08-05T12:37:14.027Z,75.00
2022-08-05T12:39:51.052Z,74.70
2022-08-05T12:42:20.936Z,77.30
2022-08-05T12:44:48.555Z,79.70
2022-08-05T12:47:30.734Z,81.10
2022-08-05T12:50:02.225Z,81.80
2022-08-05T12:52:38.904Z,82.70
2022-08-05T12:55:22.881Z,83.20
2022-08-05T12:58:51.068Z,83.10
2022-08-05T13:02:01.009Z,83.60
2022-08-05T13:03:32.241Z,84.10
2022-08-05T13:06:01.525Z,84.20
2022-08-05T13:08:32.602Z,84.90
2022-08-05T13:11:02.606Z,85.10
2022-08-05T13:14:06.266Z,85.40
2022-08-05T13:16:20.309Z,85.80
2022-08-05T13:18:58.413Z,86.20
2022-08-05T13:21:28.595Z,86.40
2022-08-05T13:24:08.603Z,86.60
2022-08-05T13:26:36.493Z,86.20
2022-08-05T13:29:05.205Z,85.20
2022-08-05T13:31:34.072Z,84.00
2022-08-05T13:34:26.004Z,83.70
2022-08-05T13:36:54.107Z,84.40
2022-08-05T13:39:24.791Z,85.20
2022-08-05T13:42:14.470Z,85.30
2022-08-05T13:44:46.476Z,85.30
2022-08-05T13:47:34.854Z,84.40
2022-08-05T13:50:06.576Z,84.90
2022-08-05T13:52:37.007Z,86.00
2022-08-05T13:55:07.722Z,86.20
2022-08-05T13:57:51.136Z,86.10
2022-08-05T14:00:27.663Z,86.50
2022-08-05T14:03:01.212Z,86.60
2022-08-05T14:05:48.188Z,86.10
2022-08-05T14:08:21.137Z,85.80
2022-08-05T14:11:03.440Z,85.40
2022-08-05T14:13:42.629Z,85.60
2022-08-05T14:16:11.592Z,82.70
2022-08-05T14:18:43.978Z,84.30
2022-08-05T14:22:07.239Z,85.60
2022-08-05T14:24:00.663Z,86.10
2022-08-05T14:26:38.641Z,86.30
2022-08-05T14:29:16.818Z,86.90
2022-08-05T14:32:02.356Z,87.30
2022-08-05T14:34:35.821Z,87.60
2022-08-05T14:37:04.634Z,87.90
2022-08-05T14:39:49.489Z,88.00
2022-08-05T14:42:22.038Z,88.10
2022-08-05T14:44:50.120Z,88.30
2022-08-05T14:48:04.034Z,88.40
2022-08-05T14:50:18.146Z,88.40
2022-08-05T14:52:53.650Z,88.40
2022-08-05T14:55:24.789Z,88.70
2022-08-05T14:57:55.932Z,88.90
2022-08-05T15:00:27.995Z,89.10
2022-08-05T15:02:57.019Z,89.30
2022-08-05T15:05:29.624Z,89.10
2022-08-05T15:08:05.485Z,89.00
2022-08-05T15:10:41.463Z,89.00
2022-08-05T15:13:09.161Z,89.30
2022-08-05T15:15:55.485Z,89.40
2022-08-05T15:18:25.066Z,89.50
2022-08-05T15:20:52.350Z,89.50
2022-08-05T15:23:19.840Z,89.40
2022-08-05T15:25:53.005Z,89.40
2022-08-05T15:28:27.348Z,89.30
2022-08-05T15:30:55.792Z,89.30
2022-08-05T15:34:05.886Z,89.30
2022-08-05T15:36:16.838Z,88.80
2022-08-05T15:38:46.306Z,87.60
2022-08-05T15:41:22.506Z,87.00
2022-08-05T15:43:54.943Z,87.40
2022-08-05T15:46:24.058Z,87.80
2022-08-05T15:48:58.944Z,87.20
2022-08-05T15:52:04.228Z,87.00
2022-08-05T15:54:17.756Z,87.40
2022-08-05T15:56:45.059Z,87.30
2022-08-05T15:59:21.617Z,87.30
2022-08-05T16:01:52.969Z,86.90
2022-08-05T16:04:25.527Z,86.30
2022-08-05T16:06:55.755Z,86.50
2022-08-05T16:09:24.845Z,87.10
2022-08-05T16:11:54.008Z,87.20
2022-08-05T16:14:22.590Z,86.80
2022-08-05T16:16:50.529Z,86.40
2022-08-05T16:19:25.694Z,86.40
2022-08-05T16:22:06.583Z,86.70
2022-08-05T16:24:41.098Z,86.70
2022-08-05T16:27:18.426Z,86.70
2022-08-05T16:29:51.111Z,86.80
2022-08-05T16:32:23.410Z,86.70
2022-08-05T16:34:57.540Z,86.70
2022-08-05T16:38:15.127Z,86.90
2022-08-05T16:40:29.229Z,86.90
2022-08-05T16:42:57.175Z,87.00
2022-08-05T16:46:07.730Z,86.30
2022-08-05T16:48:11.744Z,86.70
2022-08-05T16:50:53.340Z,87.20
2022-08-05T16:53:22.863Z,87.40
2022-08-05T16:56:00.124Z,86.90
2022-08-05T16:58:27.400Z,87.10
2022-08-05T17:00:55.341Z,86.90
2022-08-05T17:03:22.801Z,87.90
2022-08-05T17:05:54.080Z,88.00
2022-08-05T17:08:36.710Z,88.20
2022-08-05T17:11:17.019Z,87.60
2022-08-05T17:13:46.330Z,87.50
2022-08-05T17:16:29.708Z,87.50
2022-08-05T17:19:00.914Z,86.70
2022-08-05T17:21:35.626Z,86.90
2022-08-05T17:24:31.263Z,87.00
2022-08-05T17:26:57.814Z,86.60
2022-08-05T17:29:34.110Z,86.80
2022-08-05T17:32:11.285Z,87.00
2022-08-05T17:34:39.333Z,87.10
2022-08-05T17:37:40.419Z,87.30
2022-08-05T17:39:55.778Z,87.30
2022-08-05T17:42:28.338Z,87.20
2022-08-05T17:44:57.358Z,87.30
2022-08-05T17:47:24.866Z,87.40
2022-08-05T17:50:03.843Z,87.30
2022-08-05T17:52:54.876Z,87.20
2022-08-05T17:55:34.345Z,87.10
2022-08-05T17:58:12.609Z,87.00
2022-08-05T18:00:44.389Z,87.30
2022-08-05T18:03:28.206Z,87.20
2022-08-05T18:06:04.655Z,87.00
2022-08-05T18:08:33.731Z,86.50
2022-08-05T18:11:03.177Z,86.10
2022-08-05T18:13:36.435Z,85.80
2022-08-05T18:16:04.988Z,85.40
2022-08-05T18:18:33.990Z,85.40
2022-08-05T18:21:13.337Z,85.40
2022-08-05T18:23:47.438Z,85.60
2022-08-05T18:26:14.797Z,85.20
2022-08-05T18:28:46.476Z,85.40
2022-08-05T18:31:15.782Z,85.40
2022-08-05T18:33:47.121Z,85.30
2022-08-05T18:36:17.246Z,85.30
2022-08-05T18:38:46.789Z,85.20
2022-08-05T18:41:56.591Z,85.20
2022-08-05T18:44:06.449Z,85.40
2022-08-05T18:46:35.294Z,85.40
2022-08-05T18:49:23.272Z,85.60
2022-08-05T18:52:16.801Z,86.60
2022-08-05T18:54:45.775Z,85.90
2022-08-05T18:57:15.299Z,85.40
2022-08-05T19:00:03.092Z,85.30
2022-08-05T19:02:30.305Z,86.60
2022-08-05T19:05:02.057Z,86.80
2022-08-05T19:07:49.659Z,87.60
2022-08-05T19:10:20.529Z,88.10
2022-08-05T19:12:58.478Z,88.70
2022-08-05T19:15:59.712Z,89.30
2022-08-05T19:18:22.343Z,90.00
2022-08-05T19:20:53.772Z,90.30
2022-08-05T19:24:03.502Z,90.50
2022-08-05T19:26:09.558Z,90.70
2022-08-05T19:28:43.349Z,91.10
2022-08-05T19:31:13.466Z,91.20
2022-08-05T19:33:48.631Z,91.40
2022-08-05T19:36:26.085Z,91.40
2022-08-05T19:38:58.831Z,91.80
2022-08-05T19:42:05.621Z,91.80
2022-08-05T19:44:18.333Z,91.90
2022-08-05T19:46:46.316Z,92.00
2022-08-05T19:49:16.892Z,92.10
2022-08-05T19:52:08.324Z,92.20
2022-08-05T19:54:35.002Z,92.20
2022-08-05T19:57:08.331Z,92.30
2022-08-05T19:59:55.936Z,92.30
2022-08-05T20:02:27.125Z,92.40
2022-08-05T20:04:58.808Z,92.30
2022-08-05T20:07:47.470Z,92.10
2022-08-05T20:10:17.037Z,91.80
2022-08-05T20:12:46.327Z,91.20
2022-08-05T20:15:48.486Z,90.30
2022-08-05T20:18:10.837Z,90.00
2022-08-05T20:20:55.177Z,89.80
2022-08-05T20:23:40.502Z,90.60
2022-08-05T20:26:16.236Z,90.00
2022-08-05T20:28:50.641Z,90.60
2022-08-05T20:31:21.706Z,90.90
2022-08-05T20:33:56.056Z,90.90
2022-08-05T20:36:26.858Z,90.80
2022-08-05T20:38:57.927Z,90.90
2022-08-05T20:41:43.763Z,90.90
2022-08-05T20:44:19.274Z,90.90
2022-08-05T20:46:59.774Z,90.90
2022-08-05T20:49:27.282Z,90.90
2022-08-05T20:51:55.939Z,90.80
2022-08-05T20:54:43.329Z,90.80
2022-08-05T20:57:42.383Z,90.80
2022-08-05T21:00:21.390Z,90.80
2022-08-05T21:02:56.897Z,90.70
2022-08-05T21:05:24.559Z,90.80
2022-08-05T21:07:52.551Z,90.70
2022-08-05T21:10:20.705Z,90.70
2022-08-05T21:13:08.782Z,90.70
2022-08-05T21:15:36.702Z,90.80
2022-08-05T21:18:04.565Z,90.60
2022-08-05T21:20:32.641Z,90.60
2022-08-05T21:23:01.156Z,90.60
2022-08-05T21:25:34.093Z,90.60
2022-08-05T21:28:02.850Z,90.60
2022-08-05T21:30:31.476Z,90.70
2022-08-05T21:32:58.771Z,90.40
2022-08-05T21:35:30.307Z,90.40
2022-08-05T21:38:13.464Z,90.40
2022-08-05T21:40:41.602Z,90.10
2022-08-05T21:43:23.908Z,90.20
2022-08-05T21:45:57.406Z,90.20
2022-08-05T21:48:28.806Z,90.20
2022-08-05T21:50:57.402Z,90.10
2022-08-05T21:53:27.622Z,90.10
2022-08-05T21:56:06.055Z,90.10
2022-08-05T21:58:57.043Z,90.10
2022-08-05T22:01:25.902Z,90.10
2022-08-05T22:03:53.845Z,90.10
2022-08-05T22:06:22.626Z,90.10
2022-08-05T22:08:52.475Z,90.20
2022-08-05T22:11:34.800Z,90.20
2022-08-05T22:14:34.176Z,90.20
2022-08-05T22:16:53.179Z,90.10
2022-08-05T22:19:57.460Z,90.10
2022-08-05T22:22:12.606Z,90.10
2022-08-05T22:25:01.429Z,90.20
2022-08-05T22:28:09.029Z,90.20
2022-08-05T22:30:56.231Z,90.20
2022-08-05T22:33:56.629Z,90.20
2022-08-05T22:36:14.565Z,90.20
2022-08-05T22:38:44.004Z,90.10
2022-08-05T22:41:26.307Z,90.20
2022-08-05T22:44:05.402Z,90.10
2022-08-05T22:46:32.823Z,90.10
2022-08-05T22:49:00.139Z,90.10
2022-08-05T22:52:03.071Z,90.00
2022-08-05T22:54:14.814Z,89.90
2022-08-05T22:56:42.106Z,89.70
2022-08-05T22:59:44.236Z,89.80
2022-08-05T23:02:05.656Z,89.80
2022-08-05T23:04:35.584Z,89.70
2022-08-05T23:07:03.413Z,88.90
2022-08-05T23:09:57.307Z,86.80
2022-08-05T23:12:20.360Z,89.00
2022-08-05T23:14:51.474Z,89.20
2022-08-05T23:17:34.328Z,89.10
2022-08-05T23:22:41.586Z,88.70
2022-08-05T23:25:09.342Z,88.40
2022-08-05T23:27:42.394Z,89.40
2022-08-05T23:30:27.185Z,89.40
2022-08-05T23:32:56.489Z,89.10
2022-08-05T23:35:24.893Z,87.90
2022-08-05T23:37:55.990Z,88.60
2022-08-05T23:40:27.167Z,89.40
2022-08-05T23:42:54.718Z,89.90
2022-08-05T23:45:23.760Z,90.00
2022-08-05T23:47:52.052Z,90.00
2022-08-05T23:50:21.309Z,90.20
2022-08-05T23:52:49.666Z,90.00
2022-08-05T23:55:19.259Z,90.10
2022-08-05T23:57:48.961Z,90.20
